York Harbor, Maine
Current Conditions -  °F | °C
As of 4:58 PM on Thursday 23 Oct 2014 (Local Time) from KPSM Reporting Station
Drizzle Drizzle  
Wind Chill: 52°   Ceiling: 900
Heat Index: 52°   Visibility: 2.7mi
Dew Point: 49°   Wind: 21mph
Humidity: 90%   Direction: 10°N
Pressure: 29.66"   Gusts: 26mph
Location:  43.14°N, 70.65°W
Report Text: KPSM 232058Z 01018G23KT 2 3/4SM -DZ OVC009 11/10 A2966 RMK AO2A PK WND 02026/21 DZB38 SLP048 P0000 60000 T01110095 55000
Loading
Personal Weather Stations






























Interactive Weather Map
Tropical Storm Tracking
New forecast layout! Learn more

10-Day Weather Forecast

Advertisements
Track Severe Weather on mobile